sensor_id;sensor_type;location;lat;lon;timestamp;pressure;altitude;pressure_sealevel;temperature;humidity
26719;BME280;14326;50.794;6.060;2023-03-25T00:00:11;98482.22;;;9.14;95.55
26719;BME280;14326;50.794;6.060;2023-03-25T00:02:41;98477.81;;;9.13;95.31
26719;BME280;14326;50.794;6.060;2023-03-25T00:05:09;98494.59;;;9.10;95.11
26719;BME280;14326;50.794;6.060;2023-03-25T00:07:37;98481.34;;;9.09;95.08
26719;BME280;14326;50.794;6.060;2023-03-25T00:10:05;98481.38;;;9.07;96.23
26719;BME280;14326;50.794;6.060;2023-03-25T00:12:31;98483.13;;;9.07;96.49
26719;BME280;14326;50.794;6.060;2023-03-25T00:15:17;98478.69;;;9.09;95.80
26719;BME280;14326;50.794;6.060;2023-03-25T00:17:49;98488.47;;;9.00;96.73
26719;BME280;14326;50.794;6.060;2023-03-25T00:20:19;98492.84;;;9.01;96.88
26719;BME280;14326;50.794;6.060;2023-03-25T00:23:00;98480.50;;;8.97;98.26
26719;BME280;14326;50.794;6.060;2023-03-25T00:25:27;98485.81;;;8.99;97.94
26719;BME280;14326;50.794;6.060;2023-03-25T00:27:56;98487.59;;;8.91;99.12
26719;BME280;14326;50.794;6.060;2023-03-25T00:30:24;98487.59;;;8.86;99.89
26719;BME280;14326;50.794;6.060;2023-03-25T00:32:51;98479.66;;;8.80;100.00
26719;BME280;14326;50.794;6.060;2023-03-25T00:35:18;98479.69;;;8.77;100.00
26719;BME280;14326;50.794;6.060;2023-03-25T00:37:44;98480.53;;;8.78;100.00
26719;BME280;14326;50.794;6.060;2023-03-25T00:40:12;98487.63;;;8.76;100.00
26719;BME280;14326;50.794;6.060;2023-03-25T00:42:39;98478.81;;;8.77;100.00
26719;BME280;14326;50.794;6.060;2023-03-25T00:45:09;98484.06;;;8.78;100.00
26719;BME280;14326;50.794;6.060;2023-03-25T00:47:37;98483.22;;;8.76;100.00
26719;BME280;14326;50.794;6.060;2023-03-25T00:50:06;98485.88;;;8.76;100.00
26719;BME280;14326;50.794;6.060;2023-03-25T00:52:33;98485.84;;;8.78;100.00
26719;BME280;14326;50.794;6.060;2023-03-25T00:54:59;98487.63;;;8.77;99.77
26719;BME280;14326;50.794;6.060;2023-03-25T00:57:35;98496.47;;;8.82;99.45
26719;BME280;14326;50.794;6.060;2023-03-25T01:00:03;98488.50;;;8.88;99.07
26719;BME280;14326;50.794;6.060;2023-03-25T01:02:30;98494.66;;;8.84;99.33
26719;BME280;14326;50.794;6.060;2023-03-25T01:04:59;98509.69;;;8.85;99.78
26719;BME280;14326;50.794;6.060;2023-03-25T01:07:26;98501.75;;;8.85;100.00
26719;BME280;14326;50.794;6.060;2023-03-25T01:09:56;98489.41;;;8.77;100.00
26719;BME280;14326;50.794;6.060;2023-03-25T01:12:23;98495.56;;;8.73;100.00
26719;BME280;14326;50.794;6.060;2023-03-25T01:14:50;98494.69;;;8.72;100.00
26719;BME280;14326;50.794;6.060;2023-03-25T01:17:17;98503.53;;;8.62;100.00
26719;BME280;14326;50.794;6.060;2023-03-25T01:19:43;98491.19;;;8.61;100.00
26719;BME280;14326;50.794;6.060;2023-03-25T01:22:11;98474.44;;;8.53;100.00
26719;BME280;14326;50.794;6.060;2023-03-25T01:27:24;98454.09;;;8.38;100.00
26719;BME280;14326;50.794;6.060;2023-03-25T01:29:51;98454.13;;;8.34;100.00
26719;BME280;14326;50.794;6.060;2023-03-25T01:32:18;98460.28;;;8.39;100.00
26719;BME280;14326;50.794;6.060;2023-03-25T01:34:45;98469.13;;;8.39;100.00
26719;BME280;14326;50.794;6.060;2023-03-25T01:37:13;98450.59;;;8.41;100.00
26719;BME280;14326;50.794;6.060;2023-03-25T01:39:40;98460.31;;;8.40;100.00
26719;BME280;14326;50.794;6.060;2023-03-25T01:42:09;98462.97;;;8.36;100.00
26719;BME280;14326;50.794;6.060;2023-03-25T01:45:15;98456.75;;;8.38;100.00
26719;BME280;14326;50.794;6.060;2023-03-25T01:47:45;98448.81;;;8.34;100.00
26719;BME280;14326;50.794;6.060;2023-03-25T01:50:13;98443.53;;;8.40;100.00
26719;BME280;14326;50.794;6.060;2023-03-25T01:53:22;98454.09;;;8.37;100.00
26719;BME280;14326;50.794;6.060;2023-03-25T01:55:52;98448.81;;;8.34;100.00
26719;BME280;14326;50.794;6.060;2023-03-25T01:58:21;98448.81;;;8.31;100.00
26719;BME280;14326;50.794;6.060;2023-03-25T02:00:52;98459.41;;;8.31;100.00
26719;BME280;14326;50.794;6.060;2023-03-25T02:03:21;98458.53;;;8.32;100.00
26719;BME280;14326;50.794;6.060;2023-03-25T02:05:52;98453.25;;;8.36;100.00
26719;BME280;14326;50.794;6.060;2023-03-25T02:08:34;98455.00;;;8.37;100.00
26719;BME280;14326;50.794;6.060;2023-03-25T02:11:09;98444.41;;;8.39;100.00
26719;BME280;14326;50.794;6.060;2023-03-25T02:13:37;98446.16;;;8.38;100.00
26719;BME280;14326;50.794;6.060;2023-03-25T02:16:19;98453.25;;;8.36;100.00
26719;BME280;14326;50.794;6.060;2023-03-25T02:18:58;98455.00;;;8.42;100.00
26719;BME280;14326;50.794;6.060;2023-03-25T02:21:57;98455.91;;;8.42;100.00
26719;BME280;14326;50.794;6.060;2023-03-25T02:25:01;98455.00;;;8.46;100.00
26719;BME280;14326;50.794;6.060;2023-03-25T02:27:46;98465.59;;;8.48;100.00
26719;BME280;14326;50.794;6.060;2023-03-25T02:30:44;98462.94;;;8.51;100.00
26719;BME280;14326;50.794;6.060;2023-03-25T02:33:53;98462.94;;;8.54;100.00
26719;BME280;14326;50.794;6.060;2023-03-25T02:36:45;98458.50;;;8.56;100.00
26719;BME280;14326;50.794;6.060;2023-03-25T02:39:22;98456.75;;;8.52;100.00
26719;BME280;14326;50.794;6.060;2023-03-25T02:41:56;98464.69;;;8.56;100.00
26719;BME280;14326;50.794;6.060;2023-03-25T02:44:29;98452.34;;;8.54;100.00
26719;BME280;14326;50.794;6.060;2023-03-25T02:46:59;98454.97;;;8.58;100.00
26719;BME280;14326;50.794;6.060;2023-03-25T02:49:29;98449.69;;;8.52;100.00
26719;BME280;14326;50.794;6.060;2023-03-25T02:51:59;98453.19;;;8.48;100.00
26719;BME280;14326;50.794;6.060;2023-03-25T02:54:30;98459.38;;;8.49;100.00
26719;BME280;14326;50.794;6.060;2023-03-25T02:56:59;98453.22;;;8.47;100.00
26719;BME280;14326;50.794;6.060;2023-03-25T02:59:28;98454.09;;;8.46;100.00
26719;BME280;14326;50.794;6.060;2023-03-25T03:01:58;98456.75;;;8.50;100.00
26719;BME280;14326;50.794;6.060;2023-03-25T03:04:25;98442.63;;;8.51;100.00
26719;BME280;14326;50.794;6.060;2023-03-25T03:06:54;98457.63;;;8.51;100.00
26719;BME280;14326;50.794;6.060;2023-03-25T03:09:30;98454.97;;;8.51;100.00
26719;BME280;14326;50.794;6.060;2023-03-25T03:12:30;98442.63;;;8.51;100.00
26719;BME280;14326;50.794;6.060;2023-03-25T03:15:10;98432.88;;;8.49;100.00
26719;BME280;14326;50.794;6.060;2023-03-25T03:17:45;98440.84;;;8.50;100.00
26719;BME280;14326;50.794;6.060;2023-03-25T03:20:18;98441.72;;;8.51;100.00
26719;BME280;14326;50.794;6.060;2023-03-25T03:22:55;98443.50;;;8.56;99.68
26719;BME280;14326;50.794;6.060;2023-03-25T03:25:30;98435.53;;;8.56;99.91
26719;BME280;14326;50.794;6.060;2023-03-25T03:28:04;98447.03;;;8.57;98.92
26719;BME280;14326;50.794;6.060;2023-03-25T03:30:36;98447.03;;;8.57;99.92
26719;BME280;14326;50.794;6.060;2023-03-25T03:33:10;98443.50;;;8.58;99.08
26719;BME280;14326;50.794;6.060;2023-03-25T03:35:41;98453.22;;;8.59;98.20
26719;BME280;14326;50.794;6.060;2023-03-25T03:38:14;98455.84;;;8.56;100.00
26719;BME280;14326;50.794;6.060;2023-03-25T03:40:45;98447.03;;;8.57;99.70
26719;BME280;14326;50.794;6.060;2023-03-25T03:43:30;98457.59;;;8.60;98.82
26719;BME280;14326;50.794;6.060;2023-03-25T03:46:01;98451.44;;;8.58;99.16
26719;BME280;14326;50.794;6.060;2023-03-25T03:48:34;98454.09;;;8.58;98.79
26719;BME280;14326;50.794;6.060;2023-03-25T03:51:08;98451.44;;;8.58;99.18
26719;BME280;14326;50.794;6.060;2023-03-25T03:53:37;98451.41;;;8.61;98.42
26719;BME280;14326;50.794;6.060;2023-03-25T03:56:08;98444.38;;;8.55;98.59
26719;BME280;14326;50.794;6.060;2023-03-25T03:58:39;98462.03;;;8.64;98.43
26719;BME280;14326;50.794;6.060;2023-03-25T04:01:09;98466.44;;;8.65;98.00
26719;BME280;14326;50.794;6.060;2023-03-25T04:03:42;98467.34;;;8.66;97.32
26719;BME280;14326;50.794;6.060;2023-03-25T04:06:16;98463.81;;;8.65;96.69
26719;BME280;14326;50.794;6.060;2023-03-25T04:08:51;98460.25;;;8.63;97.29
26719;BME280;14326;50.794;6.060;2023-03-25T04:11:28;98454.06;;;8.67;97.46
26719;BME280;14326;50.794;6.060;2023-03-25T04:13:58;98457.59;;;8.68;96.60
26719;BME280;14326;50.794;6.060;2023-03-25T04:16:26;98460.25;;;8.66;96.43
26719;BME280;14326;50.794;6.060;2023-03-25T04:18:54;98453.16;;;8.74;95.37
26719;BME280;14326;50.794;6.060;2023-03-25T04:21:23;98462.03;;;8.72;95.10
26719;BME280;14326;50.794;6.060;2023-03-25T04:23:50;98469.06;;;8.73;94.74
26719;BME280;14326;50.794;6.060;2023-03-25T04:26:17;98458.44;;;8.79;94.69
26719;BME280;14326;50.794;6.060;2023-03-25T04:28:45;98460.25;;;8.75;94.42
26719;BME280;14326;50.794;6.060;2023-03-25T04:31:13;98459.34;;;8.75;94.39
26719;BME280;14326;50.794;6.060;2023-03-25T04:33:41;98464.63;;;8.79;94.12
26719;BME280;14326;50.794;6.060;2023-03-25T04:36:11;98455.81;;;8.77;94.47
26719;BME280;14326;50.794;6.060;2023-03-25T04:38:39;98457.59;;;8.74;94.14
26719;BME280;14326;50.794;6.060;2023-03-25T04:41:06;98465.56;;;8.71;95.12
26719;BME280;14326;50.794;6.060;2023-03-25T04:43:33;98454.03;;;8.73;95.18
26719;BME280;14326;50.794;6.060;2023-03-25T04:46:01;98459.34;;;8.76;94.43
26719;BME280;14326;50.794;6.060;2023-03-25T04:48:29;98464.69;;;8.72;94.74
26719;BME280;14326;50.794;6.060;2023-03-25T04:50:56;98462.88;;;8.78;94.68
26719;BME280;14326;50.794;6.060;2023-03-25T04:53:23;98465.53;;;8.74;95.33
26719;BME280;14326;50.794;6.060;2023-03-25T04:55:50;98462.88;;;8.74;95.84
26719;BME280;14326;50.794;6.060;2023-03-25T04:58:17;98468.19;;;8.72;95.67
26719;BME280;14326;50.794;6.060;2023-03-25T05:00:44;98459.34;;;8.75;96.10
26719;BME280;14326;50.794;6.060;2023-03-25T05:03:13;98450.53;;;8.76;95.35
26719;BME280;14326;50.794;6.060;2023-03-25T05:05:40;98462.03;;;8.72;96.17
26719;BME280;14326;50.794;6.060;2023-03-25T05:08:07;98456.72;;;8.70;95.80
26719;BME280;14326;50.794;6.060;2023-03-25T05:10:35;98451.41;;;8.76;95.24
26719;BME280;14326;50.794;6.060;2023-03-25T05:13:05;98457.56;;;8.78;95.32
26719;BME280;14326;50.794;6.060;2023-03-25T05:15:33;98449.63;;;8.72;95.37
26719;BME280;14326;50.794;6.060;2023-03-25T05:18:04;98444.34;;;8.75;95.12
26719;BME280;14326;50.794;6.060;2023-03-25T05:23:58;98436.34;;;8.78;94.71
26719;BME280;14326;50.794;6.060;2023-03-25T05:26:26;98430.19;;;8.76;95.39
26719;BME280;14326;50.794;6.060;2023-03-25T05:29:00;98442.53;;;8.79;94.65
26719;BME280;14326;50.794;6.060;2023-03-25T05:31:27;98446.09;;;8.81;94.96
26719;BME280;14326;50.794;6.060;2023-03-25T05:33:53;98462.84;;;8.86;93.88
26719;BME280;14326;50.794;6.060;2023-03-25T05:36:20;98456.66;;;8.84;93.92
26719;BME280;14326;50.794;6.060;2023-03-25T05:38:49;98468.19;;;8.81;94.40
26719;BME280;14326;50.794;6.060;2023-03-25T05:41:21;98456.66;;;8.84;94.12
26719;BME280;14326;50.794;6.060;2023-03-25T05:43:57;98458.47;;;8.82;94.27
26719;BME280;14326;50.794;6.060;2023-03-25T05:46:39;98464.63;;;8.87;94.84
26719;BME280;14326;50.794;6.060;2023-03-25T05:49:06;98471.69;;;8.86;94.71
26719;BME280;14326;50.794;6.060;2023-03-25T05:51:33;98468.16;;;8.84;95.20
26719;BME280;14326;50.794;6.060;2023-03-25T05:54:02;98482.31;;;8.80;95.46
26719;BME280;14326;50.794;6.060;2023-03-25T05:56:34;98474.38;;;8.83;95.11
26719;BME280;14326;50.794;6.060;2023-03-25T05:59:01;98466.38;;;8.85;95.56
26719;BME280;14326;50.794;6.060;2023-03-25T06:01:29;98454.03;;;8.88;95.22
26719;BME280;14326;50.794;6.060;2023-03-25T06:03:57;98480.50;;;8.91;95.44
26719;BME280;14326;50.794;6.060;2023-03-25T06:06:25;98477.88;;;8.88;96.44
26719;BME280;14326;50.794;6.060;2023-03-25T06:08:52;98490.25;;;8.91;98.42
26719;BME280;14326;50.794;6.060;2023-03-25T06:11:23;98492.94;;;8.83;100.00
26719;BME280;14326;50.794;6.060;2023-03-25T06:13:51;98497.34;;;8.75;100.00
26719;BME280;14326;50.794;6.060;2023-03-25T06:16:19;98506.22;;;8.57;100.00
26719;BME280;14326;50.794;6.060;2023-03-25T06:18:47;98515.03;;;8.50;100.00
26719;BME280;14326;50.794;6.060;2023-03-25T06:21:20;98517.72;;;8.47;100.00
26719;BME280;14326;50.794;6.060;2023-03-25T06:23:48;98514.16;;;8.44;100.00
26719;BME280;14326;50.794;6.060;2023-03-25T06:26:15;98522.13;;;8.39;100.00
26719;BME280;14326;50.794;6.060;2023-03-25T06:28:42;98515.03;;;8.38;100.00
26719;BME280;14326;50.794;6.060;2023-03-25T06:31:19;98521.22;;;8.33;100.00
26719;BME280;14326;50.794;6.060;2023-03-25T06:33:48;98524.78;;;8.35;100.00
26719;BME280;14326;50.794;6.060;2023-03-25T06:36:16;98512.41;;;8.32;100.00
26719;BME280;14326;50.794;6.060;2023-03-25T06:38:44;98518.56;;;8.33;100.00
26719;BME280;14326;50.794;6.060;2023-03-25T06:41:11;98510.63;;;8.33;100.00
26719;BME280;14326;50.794;6.060;2023-03-25T06:43:38;98505.34;;;8.36;100.00
26719;BME280;14326;50.794;6.060;2023-03-25T06:46:05;98517.69;;;8.40;100.00
26719;BME280;14326;50.794;6.060;2023-03-25T06:48:33;98511.50;;;8.44;100.00
26719;BME280;14326;50.794;6.060;2023-03-25T06:51:00;98514.16;;;8.44;100.00
26719;BME280;14326;50.794;6.060;2023-03-25T06:53:36;98529.19;;;8.46;100.00
26719;BME280;14326;50.794;6.060;2023-03-25T06:56:07;98525.63;;;8.49;100.00
26719;BME280;14326;50.794;6.060;2023-03-25T06:58:34;98521.25;;;8.54;100.00
26719;BME280;14326;50.794;6.060;2023-03-25T07:01:00;98522.09;;;8.56;100.00
26719;BME280;14326;50.794;6.060;2023-03-25T07:03:30;98525.63;;;8.55;100.00
26719;BME280;14326;50.794;6.060;2023-03-25T07:05:58;98521.22;;;8.57;100.00
26719;BME280;14326;50.794;6.060;2023-03-25T07:08:25;98534.50;;;8.58;100.00
26719;BME280;14326;50.794;6.060;2023-03-25T07:10:51;98530.06;;;8.62;100.00
26719;BME280;14326;50.794;6.060;2023-03-25T07:13:18;98538.00;;;8.60;100.00
26719;BME280;14326;50.794;6.060;2023-03-25T07:15:45;98532.69;;;8.62;100.00
26719;BME280;14326;50.794;6.060;2023-03-25T07:18:12;98547.72;;;8.66;100.00
26719;BME280;14326;50.794;6.060;2023-03-25T07:20:39;98535.38;;;8.65;100.00
26719;BME280;14326;50.794;6.060;2023-03-25T07:23:08;98532.72;;;8.71;100.00
26719;BME280;14326;50.794;6.060;2023-03-25T07:25:42;98534.47;;;8.69;100.00
26719;BME280;14326;50.794;6.060;2023-03-25T07:28:10;98537.09;;;8.66;100.00
26719;BME280;14326;50.794;6.060;2023-03-25T07:30:37;98538.00;;;8.70;100.00
26719;BME280;14326;50.794;6.060;2023-03-25T07:33:08;98538.88;;;8.67;100.00
26719;BME280;14326;50.794;6.060;2023-03-25T07:35:36;98539.75;;;8.68;100.00
26719;BME280;14326;50.794;6.060;2023-03-25T07:38:05;98539.75;;;8.74;100.00
26719;BME280;14326;50.794;6.060;2023-03-25T07:40:36;98538.88;;;8.76;100.00
26719;BME280;14326;50.794;6.060;2023-03-25T07:43:03;98542.34;;;9.18;99.03
26719;BME280;14326;50.794;6.060;2023-03-25T07:45:30;98551.03;;;9.65;95.93
26719;BME280;14326;50.794;6.060;2023-03-25T07:48:02;98546.22;;;10.31;93.14
26719;BME280;14326;50.794;6.060;2023-03-25T07:50:40;98537.94;;;10.67;89.42
26719;BME280;14326;50.794;6.060;2023-03-25T07:53:09;98542.38;;;10.72;85.83
26719;BME280;14326;50.794;6.060;2023-03-25T07:55:38;98531.94;;;10.46;86.11
26719;BME280;14326;50.794;6.060;2023-03-25T07:58:05;98556.88;;;10.28;86.25
26719;BME280;14326;50.794;6.060;2023-03-25T08:00:32;98555.06;;;10.33;84.69
26719;BME280;14326;50.794;6.060;2023-03-25T08:03:01;98560.34;;;10.38;85.22
26719;BME280;14326;50.794;6.060;2023-03-25T08:05:39;98558.56;;;10.41;85.03
26719;BME280;14326;50.794;6.060;2023-03-25T08:08:12;98575.13;;;10.77;85.25
26719;BME280;14326;50.794;6.060;2023-03-25T08:10:45;98567.16;;;10.77;83.66
26719;BME280;14326;50.794;6.060;2023-03-25T08:13:21;98580.63;;;10.52;83.86
26719;BME280;14326;50.794;6.060;2023-03-25T08:15:49;98581.59;;;10.41;84.21
26719;BME280;14326;50.794;6.060;2023-03-25T08:18:16;98587.81;;;10.40;86.28
26719;BME280;14326;50.794;6.060;2023-03-25T08:20:44;98569.19;;;10.40;85.52
26719;BME280;14326;50.794;6.060;2023-03-25T08:23:11;98582.44;;;10.47;84.38
26719;BME280;14326;50.794;6.060;2023-03-25T08:25:44;98593.09;;;10.43;85.57
26719;BME280;14326;50.794;6.060;2023-03-25T08:28:13;98587.81;;;10.38;84.89
26719;BME280;14326;50.794;6.060;2023-03-25T08:30:41;98584.31;;;10.35;83.87
26719;BME280;14326;50.794;6.060;2023-03-25T08:33:08;98592.28;;;10.36;83.70
26719;BME280;14326;50.794;6.060;2023-03-25T08:35:36;98587.88;;;10.29;83.62
26719;BME280;14326;50.794;6.060;2023-03-25T08:38:03;98591.47;;;10.22;83.34
26719;BME280;14326;50.794;6.060;2023-03-25T08:40:31;98604.78;;;10.17;84.40
26719;BME280;14326;50.794;6.060;2023-03-25T08:43:01;98595.03;;;10.10;83.45
26719;BME280;14326;50.794;6.060;2023-03-25T08:45:28;98588.81;;;10.14;83.98
26719;BME280;14326;50.794;6.060;2023-03-25T08:47:57;98602.09;;;10.14;83.79
26719;BME280;14326;50.794;6.060;2023-03-25T08:50:23;98601.22;;;10.15;84.49
26719;BME280;14326;50.794;6.060;2023-03-25T08:52:50;98593.28;;;10.18;82.70
26719;BME280;14326;50.794;6.060;2023-03-25T08:55:22;98595.00;;;10.15;83.12
26719;BME280;14326;50.794;6.060;2023-03-25T08:57:49;98596.72;;;10.33;82.64
26719;BME280;14326;50.794;6.060;2023-03-25T09:00:17;98592.13;;;10.56;83.02
26719;BME280;14326;50.794;6.060;2023-03-25T09:02:48;98600.97;;;10.56;80.72
26719;BME280;14326;50.794;6.060;2023-03-25T09:05:15;98593.94;;;10.51;80.62
26719;BME280;14326;50.794;6.060;2023-03-25T09:07:42;98594.78;;;10.57;80.32
26719;BME280;14326;50.794;6.060;2023-03-25T09:10:09;98595.63;;;10.62;81.29
26719;BME280;14326;50.794;6.060;2023-03-25T09:12:37;98604.47;;;10.64;80.58
26719;BME280;14326;50.794;6.060;2023-03-25T09:15:05;98592.06;;;10.62;80.12
26719;BME280;14326;50.794;6.060;2023-03-25T09:17:33;98598.22;;;10.72;80.22
26719;BME280;14326;50.794;6.060;2023-03-25T09:20:00;98594.69;;;10.66;79.23
26719;BME280;14326;50.794;6.060;2023-03-25T09:22:27;98596.44;;;10.67;79.57
26719;BME280;14326;50.794;6.060;2023-03-25T09:24:53;98607.97;;;10.71;79.56
26719;BME280;14326;50.794;6.060;2023-03-25T09:27:20;98617.69;;;10.74;81.10
26719;BME280;14326;50.794;6.060;2023-03-25T09:29:47;98608.94;;;10.56;81.35
26719;BME280;14326;50.794;6.060;2023-03-25T09:32:14;98612.50;;;10.60;81.15
26719;BME280;14326;50.794;6.060;2023-03-25T09:34:43;98594.78;;;10.57;84.96
26719;BME280;14326;50.794;6.060;2023-03-25T09:37:10;98613.41;;;10.51;85.62
26719;BME280;14326;50.794;6.060;2023-03-25T09:39:37;98613.47;;;10.44;86.17
26719;BME280;14326;50.794;6.060;2023-03-25T09:42:22;98621.47;;;10.39;87.34
26719;BME280;14326;50.794;6.060;2023-03-25T09:44:56;98626.81;;;10.36;87.19
26719;BME280;14326;50.794;6.060;2023-03-25T09:47:27;98613.53;;;10.35;86.45
26719;BME280;14326;50.794;6.060;2023-03-25T09:50:02;98621.47;;;10.41;85.42
26719;BME280;14326;50.794;6.060;2023-03-25T09:52:35;98609.91;;;10.46;84.97
26719;BME280;14326;50.794;6.060;2023-03-25T09:55:08;98616.03;;;10.59;84.56
26719;BME280;14326;50.794;6.060;2023-03-25T09:57:45;98636.13;;;10.96;83.32
26719;BME280;14326;50.794;6.060;2023-03-25T10:00:24;98618.25;;;11.12;81.33
26719;BME280;14326;50.794;6.060;2023-03-25T10:02:58;98619.03;;;11.23;80.65
26719;BME280;14326;50.794;6.060;2023-03-25T10:05:43;98610.22;;;11.18;78.19
26719;BME280;14326;50.794;6.060;2023-03-25T10:08:16;98640.50;;;11.05;79.02
26719;BME280;14326;50.794;6.060;2023-03-25T10:10:51;98638.88;;;10.86;81.58
26719;BME280;14326;50.794;6.060;2023-03-25T10:13:25;98641.66;;;10.69;84.05
26719;BME280;14326;50.794;6.060;2023-03-25T10:15:56;98643.47;;;10.61;85.16
26719;BME280;14326;50.794;6.060;2023-03-25T10:18:56;98641.75;;;10.57;86.24
26719;BME280;14326;50.794;6.060;2023-03-25T10:21:46;98645.25;;;10.60;85.65
26719;BME280;14326;50.794;6.060;2023-03-25T10:24:48;98641.63;;;10.74;86.45
26719;BME280;14326;50.794;6.060;2023-03-25T10:27:33;98652.16;;;10.89;85.85
26719;BME280;14326;50.794;6.060;2023-03-25T10:30:03;98655.66;;;10.91;85.19
26719;BME280;14326;50.794;6.060;2023-03-25T10:32:38;98646.00;;;10.79;85.11
26719;BME280;14326;50.794;6.060;2023-03-25T10:35:11;98642.38;;;10.92;86.01
26719;BME280;14326;50.794;6.060;2023-03-25T10:37:42;98642.03;;;11.30;86.45
26719;BME280;14326;50.794;6.060;2023-03-25T10:40:15;98639.03;;;11.61;84.16
26719;BME280;14326;50.794;6.060;2023-03-25T10:42:52;98637.75;;;11.98;81.89
26719;BME280;14326;50.794;6.060;2023-03-25T10:45:21;98625.91;;;12.20;78.70
26719;BME280;14326;50.794;6.060;2023-03-25T10:47:50;98633.91;;;12.23;78.16
26719;BME280;14326;50.794;6.060;2023-03-25T10:50:21;98633.59;;;12.45;76.37
26719;BME280;14326;50.794;6.060;2023-03-25T10:52:50;98632.34;;;12.67;76.00
26719;BME280;14326;50.794;6.060;2023-03-25T10:55:22;98635.88;;;12.72;75.63
26719;BME280;14326;50.794;6.060;2023-03-25T10:57:50;98637.13;;;13.03;75.98
26719;BME280;14326;50.794;6.060;2023-03-25T11:00:21;98629.72;;;13.22;72.89
26719;BME280;14326;50.794;6.060;2023-03-25T11:02:50;98648.44;;;13.21;72.00
26719;BME280;14326;50.794;6.060;2023-03-25T11:05:21;98638.00;;;13.05;71.81
26719;BME280;14326;50.794;6.060;2023-03-25T11:07:53;98631.59;;;13.17;72.51
26719;BME280;14326;50.794;6.060;2023-03-25T11:10:23;98641.69;;;13.49;71.18
26719;BME280;14326;50.794;6.060;2023-03-25T11:12:51;98624.72;;;13.53;68.31
26719;BME280;14326;50.794;6.060;2023-03-25T11:15:20;98647.97;;;13.48;70.16
26719;BME280;14326;50.794;6.060;2023-03-25T11:17:59;98646.53;;;13.27;69.83
26719;BME280;14326;50.794;6.060;2023-03-25T11:20:29;98651.03;;;13.25;71.14
26719;BME280;14326;50.794;6.060;2023-03-25T11:23:04;98650.16;;;13.25;71.20
26719;BME280;14326;50.794;6.060;2023-03-25T11:25:35;98639.16;;;13.43;69.54
26719;BME280;14326;50.794;6.060;2023-03-25T11:28:11;98636.41;;;13.47;68.91
26719;BME280;14326;50.794;6.060;2023-03-25T11:31:11;98640.41;;;13.21;70.54
26719;BME280;14326;50.794;6.060;2023-03-25T11:33:43;98647.69;;;13.13;72.61
26719;BME280;14326;50.794;6.060;2023-03-25T11:36:16;98641.81;;;12.89;73.61
26719;BME280;14326;50.794;6.060;2023-03-25T11:38:55;98643.03;;;12.67;71.80
26719;BME280;14326;50.794;6.060;2023-03-25T11:41:22;98647.66;;;12.56;71.35
26719;BME280;14326;50.794;6.060;2023-03-25T11:43:49;98644.00;;;12.63;70.23
26719;BME280;14326;50.794;6.060;2023-03-25T11:46:22;98634.94;;;12.73;71.52
26719;BME280;14326;50.794;6.060;2023-03-25T11:48:50;98638.50;;;12.73;67.23
26719;BME280;14326;50.794;6.060;2023-03-25T11:51:20;98634.75;;;12.85;68.48
26719;BME280;14326;50.794;6.060;2023-03-25T11:53:52;98642.72;;;12.87;67.53
26719;BME280;14326;50.794;6.060;2023-03-25T11:56:23;98620.66;;;12.77;65.01
26719;BME280;14326;50.794;6.060;2023-03-25T11:58:56;98619.97;;;12.63;65.54
26719;BME280;14326;50.794;6.060;2023-03-25T12:01:25;98632.31;;;12.70;68.07
26719;BME280;14326;50.794;6.060;2023-03-25T12:04:23;98644.78;;;12.69;66.12
26719;BME280;14326;50.794;6.060;2023-03-25T12:06:55;98632.34;;;12.67;65.84
26719;BME280;14326;50.794;6.060;2023-03-25T12:09:26;98638.66;;;12.61;66.38
26719;BME280;14326;50.794;6.060;2023-03-25T12:12:01;98641.31;;;12.63;66.38
26719;BME280;14326;50.794;6.060;2023-03-25T12:14:39;98631.44;;;12.71;67.64
26719;BME280;14326;50.794;6.060;2023-03-25T12:17:15;98626.63;;;12.93;66.47
26719;BME280;14326;50.794;6.060;2023-03-25T12:19:51;98638.31;;;12.84;66.17
26719;BME280;14326;50.794;6.060;2023-03-25T12:22:33;98639.25;;;12.83;64.60
26719;BME280;14326;50.794;6.060;2023-03-25T12:25:16;98630.84;;;13.07;65.17
26719;BME280;14326;50.794;6.060;2023-03-25T12:27:52;98615.25;;;13.35;63.63
26719;BME280;14326;50.794;6.060;2023-03-25T12:30:40;98605.00;;;13.60;62.80
26719;BME280;14326;50.794;6.060;2023-03-25T12:33:23;98596.16;;;13.55;62.83
26719;BME280;14326;50.794;6.060;2023-03-25T12:36:05;98585.97;;;13.29;62.59
26719;BME280;14326;50.794;6.060;2023-03-25T12:38:43;98586.09;;;13.22;62.90
26719;BME280;14326;50.794;6.060;2023-03-25T12:41:19;98576.59;;;13.05;66.09
26719;BME280;14326;50.794;6.060;2023-03-25T12:43:58;98564.94;;;13.13;64.27
26719;BME280;14326;50.794;6.060;2023-03-25T12:46:42;98569.47;;;13.04;63.21
26719;BME280;14326;50.794;6.060;2023-03-25T12:49:22;98568.72;;;12.96;63.00
26719;BME280;14326;50.794;6.060;2023-03-25T12:52:00;98560.88;;;12.87;62.89
26719;BME280;14326;50.794;6.060;2023-03-25T12:54:50;98558.19;;;12.89;63.67
26719;BME280;14326;50.794;6.060;2023-03-25T12:57:36;98555.63;;;12.83;62.35
26719;BME280;14326;50.794;6.060;2023-03-25T13:00:18;98561.97;;;12.77;60.37
26719;BME280;14326;50.794;6.060;2023-03-25T13:03:08;98555.03;;;12.65;60.15
26719;BME280;14326;50.794;6.060;2023-03-25T13:05:44;98558.78;;;12.54;59.58
26719;BME280;14326;50.794;6.060;2023-03-25T13:08:15;98572.16;;;12.51;61.52
26719;BME280;14326;50.794;6.060;2023-03-25T13:10:45;98570.63;;;12.36;68.06
26719;BME280;14326;50.794;6.060;2023-03-25T13:13:31;98581.66;;;12.09;71.23
26719;BME280;14326;50.794;6.060;2023-03-25T13:16:03;98597.78;;;11.98;73.17
26719;BME280;14326;50.794;6.060;2023-03-25T13:18:36;98612.97;;;11.90;75.79
26719;BME280;14326;50.794;6.060;2023-03-25T13:21:09;98621.19;;;11.72;75.28
26719;BME280;14326;50.794;6.060;2023-03-25T13:23:38;98640.16;;;11.38;79.19
26719;BME280;14326;50.794;6.060;2023-03-25T13:26:07;98685.69;;;11.09;84.53
26719;BME280;14326;50.794;6.060;2023-03-25T13:28:43;98708.19;;;10.61;89.69
26719;BME280;14326;50.794;6.060;2023-03-25T13:31:15;98666.72;;;10.27;93.36
26719;BME280;14326;50.794;6.060;2023-03-25T13:33:47;98658.81;;;10.18;94.21